Time;durP1;ratioP1;P1;durP2;ratioP2;P2;SDS_P1;SDS_P2;PMS_P1;PMS_P2;Temp;Humidity;BMP_temperature;BMP_pressure;BME280_temperature;BME280_humidity;BME280_pressure;Samples;Min_cycle;Max_cycle;Signal;HPM_P1;HPM_P2
2022/09/27 00:01:33;;;;;;;12.37;7.67;;;;;;;13.97;72.86;99529.08;1759216;80;21565;-63
2022/09/27 00:04:00;;;;;;;9.53;8.23;;;;;;;14.02;72.89;99525.44;1757743;80;21498;-64
2022/09/27 00:06:29;;;;;;;12.53;8.75;;;;;;;14.02;72.95;99517.51;1736862;80;21158;-64
2022/09/27 00:08:56;;;;;;;10.65;8.18;;;;;;;14.02;73.05;99518.83;1754214;80;21711;-64
2022/09/27 00:11:33;;;;;;;11.45;8.45;;;;;;;13.98;73.12;99510.91;1741299;80;21035;-64
2022/09/27 00:14:00;;;;;;;12.00;8.43;;;;;;;13.93;73.06;99506.92;1742813;80;21028;-63
2022/09/27 00:16:29;;;;;;;11.38;8.75;;;;;;;13.94;73.15;99505.13;1753577;80;22317;-64
2022/09/27 00:19:01;;;;;;;12.50;9.20;;;;;;;13.92;73.21;99505.30;1755257;80;21255;-64
2022/09/27 00:21:29;;;;;;;13.58;9.28;;;;;;;13.89;73.35;99498.19;1747801;80;21067;-64
2022/09/27 00:23:56;;;;;;;11.68;8.78;;;;;;;13.83;73.49;99498.84;1730928;80;21048;-64
2022/09/27 00:26:23;;;;;;;10.78;8.15;;;;;;;13.78;73.58;99501.16;1731738;80;21071;-64
2022/09/27 00:28:49;;;;;;;13.58;8.20;;;;;;;13.78;73.80;99494.55;1731943;80;21039;-63
2022/09/27 00:31:23;;;;;;;11.08;8.13;;;;;;;13.79;73.95;99490.42;1753662;80;21151;-64
2022/09/27 00:33:52;;;;;;;12.28;8.30;;;;;;;13.79;74.04;99486.45;1739247;80;21675;-64
2022/09/27 00:36:19;;;;;;;15.88;9.73;;;;;;;13.76;74.19;99474.88;1740276;80;21004;-64
2022/09/27 00:38:46;;;;;;;10.82;8.70;;;;;;;13.72;74.39;99473.07;1753245;80;21399;-64
2022/09/27 00:41:23;;;;;;;9.83;8.55;;;;;;;13.75;74.40;99477.19;1745886;80;21048;-63
2022/09/27 00:43:56;;;;;;;11.73;9.25;;;;;;;13.79;74.37;99473.23;1749064;80;21209;-64
2022/09/27 00:46:28;;;;;;;10.93;9.08;;;;;;;13.83;74.34;99467.93;1753342;80;21015;-64
2022/09/27 00:49:07;;;;;;;11.38;8.48;;;;;;;13.82;74.38;99468.09;1743028;80;21035;-63
2022/09/27 00:51:33;;;;;;;15.50;9.70;;;;;;;13.78;74.59;99461.00;1736599;80;21039;-64
2022/09/27 00:54:00;;;;;;;9.45;8.15;;;;;;;13.74;74.58;99453.08;1707949;82;21040;-64
2022/09/27 00:56:29;;;;;;;12.03;9.33;;;;;;;13.74;74.57;99447.80;1732829;80;21287;-64
2022/09/27 00:59:03;;;;;;;13.00;9.90;;;;;;;13.75;74.69;99442.81;1750582;80;21027;-64
2022/09/27 01:01:30;;;;;;;11.90;9.05;;;;;;;13.74;74.76;99447.80;1751416;81;21067;-64
2022/09/27 01:04:01;;;;;;;11.85;9.10;;;;;;;13.72;74.87;99445.81;1753800;80;21442;-64
2022/09/27 01:06:28;;;;;;;11.60;9.28;;;;;;;13.67;74.81;99441.52;1747495;80;21541;-64
2022/09/27 01:08:55;;;;;;;12.85;8.45;;;;;;;13.64;74.92;99437.37;1740045;81;22570;-64
2022/09/27 01:11:37;;;;;;;12.98;9.38;;;;;;;13.67;74.90;99437.56;1736422;80;21110;-63
2022/09/27 01:14:42;;;;;;;12.60;10.00;;;;;;;13.66;74.92;99424.81;1741269;81;21522;-64
2022/09/27 01:17:34;;;;;;;13.28;10.40;;;;;;;13.62;75.09;99428.80;1747607;80;21071;-64
2022/09/27 01:20:32;;;;;;;11.33;8.95;;;;;;;13.54;75.33;99427.47;1755518;80;21000;-64
2022/09/27 01:23:51;;;;;;;12.90;9.35;;;;;;;13.53;75.44;99425.34;1754892;80;21104;-62
2022/09/27 01:26:45;;;;;;;13.78;9.75;;;;;;;13.56;75.29;99424.98;1748987;80;21040;-65
2022/09/27 01:29:44;;;;;;;11.38;9.40;;;;;;;13.56;75.43;99413.59;1736463;80;21047;-63
2022/09/27 01:32:20;;;;;;;14.25;9.88;;;;;;;13.56;75.57;99407.80;1752111;80;21612;-63
2022/09/27 01:35:02;;;;;;;11.57;9.60;;;;;;;13.54;75.60;99393.12;1737609;80;21036;-63
2022/09/27 01:37:57;;;;;;;11.65;9.55;;;;;;;13.46;75.67;99395.25;1738830;80;21309;-63
2022/09/27 01:40:36;;;;;;;13.10;9.50;;;;;;;13.43;75.75;99397.41;1749091;80;21482;-63
2022/09/27 01:43:37;;;;;;;11.08;9.40;;;;;;;13.43;75.87;99392.97;1731234;80;21052;-63
2022/09/27 01:46:07;;;;;;;12.35;9.60;;;;;;;13.42;75.97;99395.77;1740995;80;21058;-63
2022/09/27 01:48:54;;;;;;;14.75;9.43;;;;;;;13.38;76.17;99394.78;1673814;83;21098;-63
2022/09/27 01:51:28;;;;;;;12.40;9.43;;;;;;;13.39;76.15;99396.91;1688555;83;21156;-63
2022/09/27 01:53:59;;;;;;;11.75;9.98;;;;;;;13.41;76.04;99394.92;1693954;81;21474;-63
2022/09/27 01:56:53;;;;;;;13.58;9.98;;;;;;;13.41;76.06;99394.92;1741892;80;21042;-63
2022/09/27 01:59:29;;;;;;;13.48;9.70;;;;;;;13.41;76.21;99394.11;1736386;80;21795;-63
2022/09/27 02:02:00;;;;;;;11.73;9.30;;;;;;;13.37;76.29;99389.66;1746971;80;21035;-63
2022/09/27 02:04:31;;;;;;;12.70;9.68;;;;;;;13.35;76.13;99389.00;1711663;81;21599;-63
2022/09/27 02:07:22;;;;;;;12.43;9.03;;;;;;;13.36;76.14;99395.92;1741007;79;21051;-63
2022/09/27 02:09:56;;;;;;;13.20;9.25;;;;;;;13.37;76.09;99392.30;1738706;80;21031;-64
2022/09/27 02:12:30;;;;;;;12.95;9.40;;;;;;;13.40;76.25;99387.16;1743376;79;21047;-64
2022/09/27 02:15:03;;;;;;;11.48;9.18;;;;;;;13.37;76.24;99385.19;1749671;81;21001;-63
2022/09/27 02:18:04;;;;;;;14.68;10.13;;;;;;;13.34;76.25;99387.34;1759352;79;21517;-64
2022/09/27 02:20:45;;;;;;;12.73;9.08;;;;;;;13.34;76.40;99379.41;1760653;79;21040;-63
2022/09/27 02:23:36;;;;;;;10.20;8.48;;;;;;;13.38;76.21;99384.69;1745736;80;21035;-63
2022/09/27 02:26:13;;;;;;;12.15;8.30;;;;;;;13.39;76.06;99382.38;1747776;79;22130;-63
2022/09/27 02:29:02;;;;;;;16.90;10.13;;;;;;;13.37;76.02;99387.02;1754935;79;22299;-63
2022/09/27 02:31:34;;;;;;;11.48;8.75;;;;;;;13.35;76.13;99379.75;1755447;79;21288;-64
2022/09/27 02:34:06;;;;;;;11.85;9.63;;;;;;;13.31;76.23;99365.17;1750424;79;21494;-64
2022/09/27 02:36:32;;;;;;;14.07;10.18;;;;;;;13.31;76.49;99359.39;1756634;80;21036;-64
2022/09/27 02:39:00;;;;;;;13.65;9.43;;;;;;;13.40;76.34;99364.23;1758092;79;21630;-64
2022/09/27 02:41:27;;;;;;;11.05;8.50;;;;;;;13.42;76.13;99360.92;1749171;80;21031;-63
2022/09/27 02:44:00;;;;;;;12.68;9.53;;;;;;;13.36;76.19;99362.42;1738341;79;21852;-64
2022/09/27 02:46:46;;;;;;;13.10;10.50;;;;;;;13.30;76.30;99352.47;1754568;79;21043;-64
2022/09/27 02:49:50;;;;;;;12.75;9.13;;;;;;;13.28;76.30;99364.18;1756696;81;21083;-63
2022/09/27 02:52:51;;;;;;;12.43;9.05;;;;;;;13.28;76.33;99354.94;1677268;79;21647;-63
2022/09/27 02:55:29;;;;;;;14.13;10.48;;;;;;;13.29;76.47;99352.64;1744816;79;21023;-63
2022/09/27 02:58:16;;;;;;;11.97;9.08;;;;;;;13.26;76.55;99345.85;1760518;81;21105;-63
2022/09/27 03:01:24;;;;;;;13.53;10.75;;;;;;;13.22;76.73;99341.91;1744923;79;21714;-63
2022/09/27 03:04:10;;;;;;;13.43;9.78;;;;;;;13.20;77.07;99344.70;1726001;79;21058;-63
2022/09/27 03:06:38;;;;;;;10.90;9.03;;;;;;;13.22;76.86;99335.80;1695818;82;21536;-63
2022/09/27 03:09:19;;;;;;;12.37;10.10;;;;;;;13.23;76.84;99330.36;1682376;83;21091;-63
2022/09/27 03:16:20;;;;;;;13.48;10.03;;;;;;;13.28;76.85;99320.59;1692665;82;21090;-64
2022/09/27 03:18:49;;;;;;;11.73;10.08;;;;;;;13.27;77.11;99311.84;1709215;82;21076;-64
2022/09/27 03:21:24;;;;;;;12.35;9.68;;;;;;;13.24;77.11;99304.76;1690934;82;21038;-63
2022/09/27 03:23:50;;;;;;;12.78;9.80;;;;;;;13.27;77.07;99315.00;1700775;82;21035;-63
2022/09/27 03:26:17;;;;;;;12.25;9.08;;;;;;;13.30;76.92;99315.98;1700653;82;21497;-63
2022/09/27 03:28:44;;;;;;;12.95;10.15;;;;;;;13.35;76.72;99324.27;1705753;82;21027;-64
2022/09/27 03:31:10;;;;;;;21.12;9.78;;;;;;;13.37;76.74;99319.13;1698148;82;21031;-64
2022/09/27 03:33:39;;;;;;;17.30;10.00;;;;;;;13.37;76.64;99323.60;1697896;82;21031;-64
2022/09/27 03:36:07;;;;;;;12.47;9.55;;;;;;;13.31;76.70;99329.00;1706620;82;21046;-64
2022/09/27 03:38:34;;;;;;;12.73;8.70;;;;;;;13.29;76.74;99327.03;1698985;82;21228;-64
2022/09/27 03:41:01;;;;;;;11.70;9.33;;;;;;;13.33;76.65;99323.59;1697377;82;21024;-63
2022/09/27 03:43:29;;;;;;;11.55;9.85;;;;;;;13.37;76.69;99318.31;1705449;82;21094;-64
2022/09/27 03:45:58;;;;;;;15.18;10.10;;;;;;;13.43;76.63;99324.27;1701918;82;21054;-64
2022/09/27 03:48:25;;;;;;;13.30;10.78;;;;;;;13.41;76.73;99322.27;1686451;82;21019;-64
2022/09/27 03:50:51;;;;;;;12.40;10.32;;;;;;;13.39;76.75;99324.25;1704787;82;21103;-64
2022/09/27 03:53:18;;;;;;;12.78;10.38;;;;;;;13.39;76.83;99321.61;1691905;82;21093;-63
2022/09/27 03:55:46;;;;;;;12.85;9.75;;;;;;;13.48;76.89;99327.23;1699717;82;22308;-63
2022/09/27 03:58:14;;;;;;;12.73;9.88;;;;;;;13.58;76.58;99312.99;1699489;82;21556;-64
2022/09/27 04:00:41;;;;;;;12.50;9.93;;;;;;;13.66;76.43;99315.63;1699561;82;21594;-63
2022/09/27 04:03:10;;;;;;;12.05;10.48;;;;;;;13.70;76.35;99320.41;1701997;82;21758;-64
2022/09/27 04:05:39;;;;;;;13.13;10.28;;;;;;;13.71;76.35;99316.75;1735496;79;21047;-64
2022/09/27 04:08:09;;;;;;;15.40;10.23;;;;;;;13.66;76.01;99309.83;1759515;79;21011;-64
2022/09/27 04:10:38;;;;;;;13.75;9.20;;;;;;;13.64;75.98;99306.53;1760496;80;21044;-64
2022/09/27 04:13:05;;;;;;;12.07;9.43;;;;;;;13.66;75.86;99302.41;1747574;79;21039;-64
2022/09/27 04:15:34;;;;;;;13.53;10.23;;;;;;;13.68;75.69;99304.38;1753945;80;21138;-64
2022/09/27 04:18:19;;;;;;;13.18;10.13;;;;;;;13.69;75.79;99306.03;1763076;80;21031;-64
2022/09/27 04:21:03;;;;;;;13.13;10.48;;;;;;;13.69;75.97;99302.89;1662514;84;21070;-64
2022/09/27 04:23:31;;;;;;;10.98;8.83;;;;;;;13.66;75.85;99298.44;1731178;81;21039;-64
2022/09/27 04:25:57;;;;;;;14.53;9.98;;;;;;;13.64;75.82;99295.15;1755630;80;21079;-63
2022/09/27 04:28:32;;;;;;;15.68;9.63;;;;;;;13.65;75.62;99298.10;1758777;79;21326;-64
2022/09/27 04:30:59;;;;;;;13.50;10.08;;;;;;;13.64;75.59;99295.97;1760094;79;21044;-64
2022/09/27 04:33:44;;;;;;;12.90;10.75;;;;;;;13.68;75.69;99300.41;1760073;79;21002;-64
2022/09/27 04:36:26;;;;;;;14.40;11.03;;;;;;;13.64;75.80;99300.44;1754885;81;20992;-64
2022/09/27 04:39:08;;;;;;;10.53;8.90;;;;;;;13.58;76.06;99291.34;1761688;80;21045;-64
2022/09/27 04:41:36;;;;;;;13.22;10.32;;;;;;;13.61;76.15;99291.01;1754104;79;21170;-64
2022/09/27 04:44:05;;;;;;;12.15;9.78;;;;;;;13.67;76.30;99290.34;1760930;79;21042;-64
2022/09/27 04:46:32;;;;;;;12.95;10.93;;;;;;;13.74;76.33;99295.78;1759666;79;21070;-64
2022/09/27 04:49:00;;;;;;;13.45;10.30;;;;;;;13.75;76.16;99287.68;1762059;79;21100;-64
2022/09/27 04:51:28;;;;;;;11.48;9.88;;;;;;;13.70;76.00;99295.77;1755872;80;21440;-64
2022/09/27 04:53:56;;;;;;;12.93;10.28;;;;;;;13.67;76.06;99291.66;1761891;79;21907;-62
2022/09/27 04:56:25;;;;;;;12.73;10.32;;;;;;;13.71;76.17;99287.67;1757428;80;21008;-62
2022/09/27 04:58:52;;;;;;;14.43;9.88;;;;;;;13.80;76.24;99285.85;1754537;81;21044;-63
2022/09/27 05:01:21;;;;;;;16.45;10.88;;;;;;;13.85;76.08;99276.91;1760597;79;21609;-62
2022/09/27 05:04:08;;;;;;;13.70;11.00;;;;;;;13.81;76.06;99274.27;1759061;79;21094;-62
2022/09/27 05:06:37;;;;;;;12.35;10.18;;;;;;;13.75;76.26;99268.33;1751097;80;21473;-62
2022/09/27 05:09:08;;;;;;;15.48;10.43;;;;;;;13.77;76.21;99271.65;1743631;80;21048;-62
2022/09/27 05:11:39;;;;;;;11.65;9.70;;;;;;;13.83;76.12;99266.16;1737868;81;21051;-62
2022/09/27 05:14:15;;;;;;;13.90;10.75;;;;;;;13.89;76.05;99262.34;1740023;80;21083;-62
2022/09/27 05:16:43;;;;;;;13.08;10.88;;;;;;;13.91;75.93;99260.34;1752463;80;21052;-62
2022/09/27 05:19:28;;;;;;;12.78;10.40;;;;;;;13.89;75.91;99261.02;1729762;81;21121;-63
2022/09/27 05:21:58;;;;;;;16.62;10.20;;;;;;;13.86;75.93;99266.64;1731703;80;22273;-63
2022/09/27 05:24:26;;;;;;;12.03;9.50;;;;;;;13.86;75.86;99259.22;1747896;80;21043;-63
2022/09/27 05:26:54;;;;;;;13.68;10.50;;;;;;;13.87;75.81;99256.41;1738963;81;21846;-63
2022/09/27 05:29:20;;;;;;;13.30;9.65;;;;;;;13.93;75.80;99260.98;1749112;80;21039;-63
2022/09/27 05:31:49;;;;;;;15.95;11.48;;;;;;;13.96;75.65;99259.83;1750463;80;21622;-62
2022/09/27 05:34:19;;;;;;;13.65;10.55;;;;;;;13.91;75.69;99264.30;1751940;81;21007;-62
2022/09/27 05:36:48;;;;;;;14.75;10.80;;;;;;;13.87;76.02;99265.66;1746043;80;21033;-63
2022/09/27 05:39:16;;;;;;;11.40;9.80;;;;;;;13.92;76.14;99267.80;1754345;80;21047;-63
2022/09/27 05:41:43;;;;;;;14.18;11.05;;;;;;;13.95;75.86;99263.45;1741260;81;21019;-63
2022/09/27 05:44:09;;;;;;;14.60;10.72;;;;;;;13.95;75.72;99270.06;1746423;80;21642;-63
2022/09/27 05:46:37;;;;;;;13.85;10.60;;;;;;;13.89;75.91;99274.23;1752651;81;21040;-63
2022/09/27 05:49:05;;;;;;;15.00;10.72;;;;;;;13.86;76.00;99282.50;1755261;80;21008;-63
2022/09/27 05:51:32;;;;;;;13.85;10.25;;;;;;;13.83;76.00;99273.59;1749578;80;21939;-63
2022/09/27 05:53:58;;;;;;;14.95;10.53;;;;;;;13.84;75.92;99273.92;1755900;80;21043;-63
2022/09/27 05:56:27;;;;;;;11.35;10.08;;;;;;;13.90;76.20;99273.73;1750203;80;21306;-63
2022/09/27 05:59:08;;;;;;;13.88;11.00;;;;;;;13.96;76.41;99269.59;1748291;80;21081;-63
2022/09/27 06:01:36;;;;;;;13.58;10.28;;;;;;;13.98;76.31;99267.59;1748686;80;21064;-63
2022/09/27 06:04:05;;;;;;;13.85;10.10;;;;;;;13.96;76.28;99267.77;1712088;80;21061;-63
2022/09/27 06:06:51;;;;;;;11.97;9.80;;;;;;;14.01;76.19;99269.90;1751715;80;21036;-63
2022/09/27 06:09:18;;;;;;;12.93;10.05;;;;;;;14.05;76.21;99272.00;1730750;80;21147;-63
2022/09/27 06:11:48;;;;;;;12.82;10.63;;;;;;;14.06;76.10;99259.63;1741242;80;21075;-62
2022/09/27 06:14:17;;;;;;;14.47;10.50;;;;;;;14.10;76.36;99267.52;1733499;81;22321;-63
2022/09/27 06:17:01;;;;;;;13.05;10.00;;;;;;;14.14;76.36;99264.88;1739968;80;21811;-63
2022/09/27 06:19:29;;;;;;;12.20;9.75;;;;;;;14.16;76.12;99265.52;1754097;81;20990;-63
2022/09/27 06:21:56;;;;;;;14.13;11.45;;;;;;;14.22;76.09;99270.13;1746777;80;21132;-63
2022/09/27 06:24:25;;;;;;;13.03;10.75;;;;;;;14.26;75.99;99266.63;1734212;80;21839;-63
2022/09/27 06:26:51;;;;;;;16.87;11.18;;;;;;;14.25;75.89;99272.40;1744305;81;22040;-63
2022/09/27 06:29:19;;;;;;;12.75;10.40;;;;;;;14.21;75.87;99271.63;1745183;80;21769;-63
2022/09/27 06:31:48;;;;;;;13.90;10.63;;;;;;;14.20;75.90;99279.22;1752598;80;21027;-62
2022/09/27 06:34:27;;;;;;;14.03;9.78;;;;;;;14.22;75.88;99278.06;1734544;81;21013;-63
2022/09/27 06:36:56;;;;;;;11.93;10.48;;;;;;;14.24;75.93;99266.80;1739095;80;21050;-63
2022/09/27 06:39:23;;;;;;;13.28;10.90;;;;;;;14.26;76.05;99270.09;1740808;81;21119;-63
2022/09/27 06:41:58;;;;;;;21.23;12.98;;;;;;;14.25;76.24;99268.43;1739461;80;21056;-63
2022/09/27 06:44:43;;;;;;;18.32;11.45;;;;;;;14.25;76.34;99267.11;1751204;80;21032;-63
2022/09/27 06:47:18;;;;;;;15.25;11.63;;;;;;;14.26;76.29;99262.16;1737605;80;21180;-63
2022/09/27 06:49:56;;;;;;;19.00;12.23;;;;;;;14.30;76.33;99259.47;1727721;81;21052;-63
2022/09/27 06:52:22;;;;;;;19.20;13.45;;;;;;;14.34;76.38;99261.30;1736313;80;21039;-62
2022/09/27 06:54:49;;;;;;;18.05;13.20;;;;;;;14.34;76.60;99268.39;1750816;80;20997;-63
2022/09/27 07:00:22;;;;;;;19.75;13.83;;;;;;;14.27;76.54;99261.17;1746685;81;21050;-63
2022/09/27 07:02:47;;;;;;;19.77;13.05;;;;;;;14.35;76.74;99266.08;1743884;80;21142;-62
2022/09/27 07:05:16;;;;;;;18.92;13.55;;;;;;;14.41;76.60;99272.01;1742028;80;21058;-63
2022/09/27 07:07:50;;;;;;;22.45;14.45;;;;;;;14.39;76.66;99267.36;1750161;80;21028;-63
2022/09/27 07:10:17;;;;;;;22.60;14.63;;;;;;;14.35;76.98;99268.22;1744273;80;21059;-63
2022/09/27 07:12:48;;;;;;;19.77;13.38;;;;;;;14.31;77.19;99265.10;1741502;80;21349;-63
2022/09/27 07:15:16;;;;;;;17.35;14.25;;;;;;;14.33;77.29;99256.17;1745455;80;21083;-63
2022/09/27 07:20:26;;;;;;;20.48;14.93;;;;;;;14.54;77.39;99261.67;1778481;79;22618;-46
2022/09/27 07:22:52;;;;;;;21.90;14.13;;;;;;;14.60;77.32;99260.97;1730968;80;21109;-47
2022/09/27 07:25:19;;;;;;;21.17;15.95;;;;;;;14.62;77.56;99253.67;1749662;80;21275;-46
2022/09/27 07:27:47;;;;;;;20.10;14.53;;;;;;;14.66;77.76;99251.02;1745898;80;21002;-46
2022/09/27 07:30:13;;;;;;;21.33;14.43;;;;;;;14.65;77.64;99249.86;1748429;81;21062;-46
2022/09/27 07:32:41;;;;;;;24.40;13.70;;;;;;;14.70;77.54;99249.34;1746699;80;21581;-46
2022/09/27 07:35:09;;;;;;;21.12;15.28;;;;;;;14.70;77.48;99247.50;1746157;80;21027;-47
2022/09/27 07:37:36;;;;;;;23.65;14.65;;;;;;;14.71;77.54;99249.16;1743680;80;21187;-47
2022/09/27 07:40:07;;;;;;;27.93;15.50;;;;;;;14.68;77.58;99252.97;1742617;80;21121;-46
2022/09/27 07:42:40;;;;;;;37.75;17.17;;;;;;;14.66;77.85;99251.52;1742923;81;21091;-46
2022/09/27 07:45:08;;;;;;;34.95;15.88;;;;;;;14.65;77.77;99253.32;1741333;80;20999;-46
2022/09/27 07:47:42;;;;;;;;;;;;;;;14.67;77.72;99255.28;1741473;80;21683;-47
2022/09/27 07:50:23;;;;;;;24.18;14.68;;;;;;;14.71;77.78;99252.29;1734695;80;21087;-47
2022/09/27 07:52:52;;;;;;;24.75;14.90;;;;;;;14.72;77.89;99247.33;1746877;80;21078;-47
2022/09/27 07:55:35;;;;;;;30.32;16.85;;;;;;;14.71;78.13;99247.00;1744581;81;21038;-47
2022/09/27 07:58:10;;;;;;;27.60;15.10;;;;;;;14.72;78.45;99244.68;1742183;80;21086;-46
2022/09/27 08:00:38;;;;;;;21.02;14.55;;;;;;;14.70;78.64;99242.21;1744801;81;21089;-47
2022/09/27 08:03:14;;;;;;;21.12;13.98;;;;;;;14.73;78.61;99250.31;1746696;80;21125;-46
2022/09/27 08:05:42;;;;;;;22.48;14.33;;;;;;;14.79;78.53;99246.94;1740408;81;21053;-46
2022/09/27 08:08:10;;;;;;;26.07;14.30;;;;;;;14.83;78.40;99242.95;1737801;80;21581;-46
2022/09/27 08:10:42;;;;;;;19.73;13.48;;;;;;;14.85;78.55;99241.75;1748620;80;21069;-47
2022/09/27 08:13:07;;;;;;;23.55;15.10;;;;;;;14.89;78.81;99245.38;1743661;80;21066;-46
2022/09/27 08:15:40;;;;;;;19.82;13.72;;;;;;;14.90;78.96;99243.88;1745736;81;21133;-47
2022/09/27 08:18:09;;;;;;;21.60;14.63;;;;;;;14.91;78.93;99248.17;1745613;80;21652;-46
2022/09/27 08:20:50;;;;;;;22.00;14.33;;;;;;;15.00;78.95;99247.59;1683718;83;21078;-47
2022/09/27 08:23:19;;;;;;;25.85;16.02;;;;;;;15.05;78.81;99249.20;1700997;83;21542;-49
2022/09/27 08:25:52;;;;;;;22.37;15.78;;;;;;;15.05;78.55;99243.91;1682613;84;21008;-48
2022/09/27 08:28:31;;;;;;;21.40;16.30;;;;;;;15.00;78.67;99239.14;1709990;83;21051;-47
2022/09/27 08:31:00;;;;;;;21.50;15.30;;;;;;;14.96;78.90;99233.05;1703865;83;21090;-47
2022/09/27 08:33:26;;;;;;;19.82;14.07;;;;;;;14.94;79.02;99225.79;1689761;83;21066;-47
2022/09/27 08:35:53;;;;;;;21.40;15.50;;;;;;;14.99;79.03;99230.05;1706444;83;21054;-47
2022/09/27 08:38:19;;;;;;;27.90;17.52;;;;;;;15.03;79.15;99220.24;1702975;83;21063;-47
2022/09/27 08:40:56;;;;;;;22.15;16.37;;;;;;;15.05;79.18;99220.06;1704097;82;21234;-47
2022/09/27 08:43:50;;;;;;;21.50;16.25;;;;;;;15.06;79.49;99219.05;1711155;83;21079;-47
2022/09/27 08:46:27;;;;;;;22.02;16.10;;;;;;;15.05;79.72;99218.23;1704159;83;21533;-47
2022/09/27 08:49:06;;;;;;;21.80;15.05;;;;;;;15.10;79.75;99212.91;1687279;83;21058;-47
2022/09/27 08:51:33;;;;;;;20.57;15.35;;;;;;;15.18;79.74;99217.62;1680080;83;21094;-47
2022/09/27 08:54:05;;;;;;;20.85;15.25;;;;;;;15.25;79.66;99219.04;1687236;83;21193;-47
2022/09/27 08:56:32;;;;;;;23.42;17.12;;;;;;;15.29;79.70;99211.55;1705984;83;21605;-47
2022/09/27 08:59:20;;;;;;;21.55;17.17;;;;;;;15.31;80.08;99207.69;1704660;82;21552;-47
2022/09/27 09:01:44;;;;;;;26.37;17.53;;;;;;;15.38;80.21;99202.00;1696050;82;21039;-47
2022/09/27 09:04:17;;;;;;;28.70;15.23;;;;;;;15.47;80.00;99202.73;1704009;83;21070;-47
2022/09/27 09:07:08;;;;;;;21.17;15.20;;;;;;;15.57;79.87;99199.80;1673670;83;21169;-48
2022/09/27 09:09:51;;;;;;;18.12;15.78;;;;;;;15.68;79.85;99189.22;1669621;83;21745;-47
2022/09/27 09:12:46;;;;;;;21.23;16.25;;;;;;;15.79;79.67;99193.58;1646847;84;21134;-49
2022/09/27 09:15:54;;;;;;;21.13;15.60;;;;;;;15.81;79.51;99195.23;1689300;83;21067;-46
2022/09/27 09:19:05;;;;;;;25.77;16.07;;;;;;;15.81;79.33;99193.91;1695800;83;21865;-47
2022/09/27 09:21:53;;;;;;;24.80;15.85;;;;;;;15.86;79.38;99194.98;1702113;82;22175;-45
2022/09/27 09:24:36;;;;;;;22.87;16.07;;;;;;;15.96;79.26;99199.48;1710117;83;21094;-47
2022/09/27 09:27:26;;;;;;;23.20;17.35;;;;;;;15.95;79.04;99211.60;1638997;83;21796;-47
2022/09/27 09:30:21;;;;;;;21.17;17.27;;;;;;;15.92;79.13;99211.48;1693348;83;23511;-47
2022/09/27 09:32:58;;;;;;;19.42;16.52;;;;;;;15.88;79.09;99211.52;1678307;84;21114;-45
2022/09/27 09:35:33;;;;;;;21.30;16.00;;;;;;;15.87;78.98;99211.22;1683152;83;21177;-47
2022/09/27 09:38:02;;;;;;;20.43;16.30;;;;;;;15.92;78.83;99218.12;1680905;83;21163;-47
2022/09/27 09:40:36;;;;;;;23.32;17.62;;;;;;;15.94;78.62;99212.62;1676188;83;21095;-47
2022/09/27 09:43:19;;;;;;;25.88;18.23;;;;;;;15.95;78.80;99212.45;1680641;83;21162;-47
2022/09/27 09:46:08;;;;;;;22.70;17.73;;;;;;;16.04;79.08;99214.96;1690840;83;21137;-46
2022/09/27 09:48:52;;;;;;;25.48;16.73;;;;;;;16.09;78.68;99214.73;1689775;83;22085;-47
2022/09/27 09:51:27;;;;;;;26.12;17.42;;;;;;;16.02;78.08;99211.20;1690032;83;21632;-47
2022/09/27 09:54:14;;;;;;;26.30;16.82;;;;;;;16.02;78.06;99209.03;1691247;83;21141;-47
2022/09/27 09:56:48;;;;;;;25.48;17.32;;;;;;;16.09;78.05;99205.97;1686740;83;21114;-47
2022/09/27 09:59:20;;;;;;;27.15;17.95;;;;;;;16.08;77.85;99201.14;1685459;83;21126;-47
2022/09/27 10:01:49;;;;;;;21.65;17.77;;;;;;;16.06;77.92;99199.19;1679304;83;21170;-47
2022/09/27 10:04:26;;;;;;;29.77;19.48;;;;;;;16.03;78.04;99204.86;1709807;82;21161;-45
2022/09/27 10:06:53;;;;;;;24.52;17.05;;;;;;;16.05;77.90;99203.35;1702434;82;21185;-46
2022/09/27 10:09:25;;;;;;;25.43;17.42;;;;;;;16.11;77.67;99201.28;1697842;82;21066;-46
2022/09/27 10:11:54;;;;;;;25.62;17.30;;;;;;;16.13;77.59;99192.11;1706374;82;21540;-47
2022/09/27 10:14:24;;;;;;;24.57;18.92;;;;;;;16.11;77.51;99189.34;1708442;82;21155;-46
2022/09/27 10:16:58;;;;;;;25.50;19.85;;;;;;;16.03;77.50;99185.48;1681170;84;21189;-45
2022/09/27 10:19:32;;;;;;;26.62;17.82;;;;;;;16.00;77.58;99192.48;1679733;83;21151;-46
2022/09/27 10:22:23;;;;;;;20.92;17.37;;;;;;;15.96;77.72;99188.87;1667164;84;21138;-46
2022/09/27 10:25:02;;;;;;;26.45;18.37;;;;;;;15.97;77.73;99188.38;1687926;82;21131;-46
2022/09/27 10:27:42;;;;;;;25.35;18.92;;;;;;;16.02;78.00;99197.93;1713060;81;21332;-47
2022/09/27 10:30:31;;;;;;;26.45;18.98;;;;;;;16.07;78.09;99204.82;1728309;81;21035;-46
2022/09/27 10:33:07;;;;;;;26.30;17.55;;;;;;;16.13;78.43;99204.05;1665017;85;21094;-46
2022/09/27 10:35:45;;;;;;;20.57;16.40;;;;;;;16.11;77.97;99202.09;1664118;85;21400;-47
2022/09/27 10:38:33;;;;;;;24.77;18.05;;;;;;;16.13;78.01;99200.07;1735244;82;21075;-47
2022/09/27 10:41:40;;;;;;;21.12;17.42;;;;;;;16.19;77.96;99193.21;1722906;82;21155;-46
2022/09/27 10:44:30;;;;;;;27.25;19.05;;;;;;;16.15;77.90;99185.30;1715873;82;21090;-46
2022/09/27 10:47:21;;;;;;;23.25;18.30;;;;;;;16.16;78.45;99193.06;1729861;81;21629;-47
2022/09/27 10:50:06;;;;;;;20.77;17.80;;;;;;;16.18;78.11;99191.55;1716998;81;21020;-47
2022/09/27 10:52:36;;;;;;;22.52;17.17;;;;;;;16.21;78.04;99183.73;1725322;81;21012;-47
2022/09/27 10:55:22;;;;;;;21.00;18.00;;;;;;;16.26;78.21;99181.33;1722339;81;21188;-46
2022/09/27 10:57:53;;;;;;;26.17;18.48;;;;;;;16.34;78.25;99178.56;1729234;81;21083;-46
2022/09/27 11:00:31;;;;;;;24.18;19.52;;;;;;;16.36;78.11;99168.56;1729725;82;21075;-47
2022/09/27 11:03:13;;;;;;;22.42;17.67;;;;;;;16.41;78.32;99170.14;1723845;81;21095;-46
2022/09/27 11:05:40;;;;;;;19.73;17.10;;;;;;;16.51;78.06;99164.52;1730002;82;21091;-46
2022/09/27 11:08:31;;;;;;;18.17;15.38;;;;;;;16.62;77.29;99161.84;1727794;81;21239;-46
2022/09/27 11:11:20;;;;;;;19.82;17.02;;;;;;;16.69;77.06;99159.56;1715357;81;21063;-46
2022/09/27 11:14:06;;;;;;;21.23;17.77;;;;;;;16.73;76.59;99137.41;1722733;81;21126;-46
2022/09/27 11:16:49;;;;;;;21.52;17.15;;;;;;;16.71;76.49;99134.14;1729601;81;21081;-46
2022/09/27 11:19:59;;;;;;;19.20;16.17;;;;;;;16.74;76.62;99135.57;1721695;81;21542;-46
2022/09/27 11:23:11;;;;;;;25.23;20.37;;;;;;;16.77;76.40;99139.98;1727003;81;21115;-46
2022/09/27 11:26:13;;;;;;;24.65;18.77;;;;;;;16.84;76.24;99141.36;1725202;81;21028;-46
2022/09/27 11:29:10;;;;;;;21.70;18.90;;;;;;;16.89;76.13;99141.63;1716191;81;21518;-46
2022/09/27 11:32:29;;;;;;;22.35;16.45;;;;;;;16.88;75.88;99136.83;1727098;81;21062;-46
2022/09/27 11:35:22;;;;;;;19.45;15.18;;;;;;;16.87;75.65;99135.70;1731281;81;21138;-46
2022/09/27 11:38:12;;;;;;;18.77;15.65;;;;;;;16.88;75.49;99139.48;1729082;81;21201;-47
2022/09/27 11:41:03;;;;;;;20.23;17.25;;;;;;;16.90;75.54;99139.30;1716391;81;21513;-47
2022/09/27 11:44:16;;;;;;;20.77;17.50;;;;;;;17.04;75.46;99139.67;1712290;81;21138;-46
2022/09/27 11:46:44;;;;;;;19.73;16.42;;;;;;;17.22;75.78;99133.86;1714430;81;21169;-46
2022/09/27 11:49:40;;;;;;;18.77;16.10;;;;;;;17.36;74.81;99125.42;1731104;81;21054;-46
2022/09/27 11:52:35;;;;;;;18.85;16.57;;;;;;;17.45;74.61;99131.42;1718232;81;22077;-45
2022/09/27 11:55:20;;;;;;;18.52;16.17;;;;;;;17.60;74.51;99127.27;1685030;81;21704;-46
2022/09/27 11:58:14;;;;;;;21.15;17.12;;;;;;;17.76;73.60;99125.58;1719976;81;21094;-46
2022/09/27 12:00:46;;;;;;;;;;;;;;;17.86;73.80;99133.19;1716387;80;21028;-45
2022/09/27 12:03:25;;;;;;;19.57;16.30;;;;;;;18.05;73.19;99145.44;1725441;81;20171;-46
2022/09/27 12:06:12;;;;;;;20.17;16.73;;;;;;;18.12;72.37;99143.60;1727444;82;21248;-46
2022/09/27 12:09:07;;;;;;;18.37;16.37;;;;;;;18.08;71.36;99133.88;1720667;81;21070;-46
2022/09/27 12:11:59;;;;;;;16.45;14.55;;;;;;;17.91;71.27;99138.75;1716171;81;21063;-46